Time;durP1;ratioP1;P1;durP2;ratioP2;P2;SDS_P1;SDS_P2;PMS_P1;PMS_P2;Temp;Humidity;BMP_temperature;BMP_pressure;BME280_temperature;BME280_humidity;BME280_pressure;Samples;Min_cycle;Max_cycle;Signal;HPM_P1;HPM_P2
2022/03/05 00:00:32;;;;;;;;;15.50;12.25;;;;;20.42;37.44;101356.72;5078845;27;45645;-54
2022/03/05 00:02:59;;;;;;;;;16.75;13.75;;;;;20.39;37.65;101355.94;5078232;27;46303;-56
2022/03/05 00:05:24;;;;;;;;;19.25;18.25;;;;;20.38;37.61;101350.75;5077099;28;45829;-56
2022/03/05 00:07:50;;;;;;;;;14.75;13.75;;;;;20.38;37.41;101354.22;5077261;27;45363;-58
2022/03/05 00:10:16;;;;;;;;;17.25;15.25;;;;;20.37;37.42;101342.00;5077349;28;45276;-55
2022/03/05 00:12:42;;;;;;;;;20.50;17.25;;;;;20.36;37.43;101344.72;5078360;27;46987;-50
2022/03/05 00:15:07;;;;;;;;;18.00;16.00;;;;;20.35;37.14;101343.00;5078443;27;45428;-57
2022/03/05 00:17:33;;;;;;;;;14.50;13.50;;;;;20.35;37.49;101343.84;5078332;27;45465;-55
2022/03/05 00:19:58;;;;;;;;;18.25;17.25;;;;;20.35;37.42;101343.00;5078435;27;45513;-55
2022/03/05 00:22:24;;;;;;;;;17.50;14.50;;;;;20.34;37.61;101352.66;5078049;27;46086;-53
2022/03/05 00:24:49;;;;;;;;;16.25;14.75;;;;;20.32;37.31;101341.38;5077159;27;45378;-56
2022/03/05 00:27:16;;;;;;;;;16.00;16.00;;;;;20.29;37.30;101344.13;5077108;28;45395;-57
2022/03/05 00:29:42;;;;;;;;;16.50;15.00;;;;;20.29;37.45;101338.88;5078274;27;45489;-56
2022/03/05 00:32:08;;;;;;;;;16.75;16.75;;;;;20.28;37.33;101339.78;5078361;27;46248;-54
2022/03/05 00:34:33;;;;;;;;;18.00;17.00;;;;;20.30;37.54;101347.59;5078086;27;45225;-52
2022/03/05 00:36:58;;;;;;;;;16.50;16.50;;;;;20.28;37.73;101342.44;5077768;27;48426;-57
2022/03/05 00:39:24;;;;;;;;;20.25;18.75;;;;;20.28;37.37;101342.44;5078215;27;45480;-58
2022/03/05 00:41:49;;;;;;;;;12.25;11.50;;;;;20.27;37.57;101339.88;5077732;27;45419;-54
2022/03/05 00:44:15;;;;;;;;;25.00;17.25;;;;;20.26;37.68;101339.00;5076483;28;45355;-56
2022/03/05 00:46:41;;;;;;;;;15.75;13.50;;;;;20.23;37.16;101336.50;5078090;27;45338;-48
2022/03/05 00:49:07;;;;;;;;;16.75;14.25;;;;;20.24;37.31;101339.09;5076742;28;45535;-52
2022/03/05 00:51:32;;;;;;;;;18.50;17.50;;;;;20.23;37.11;101331.25;5077677;27;45424;-49
2022/03/05 00:53:58;;;;;;;;;17.25;15.50;;;;;20.21;37.29;101331.31;5077780;27;45317;-49
2022/03/05 00:56:23;;;;;;;;;19.25;18.00;;;;;20.22;37.24;101343.56;5077828;27;45318;-48
2022/03/05 00:58:48;;;;;;;;;19.75;16.50;;;;;20.21;37.37;101338.38;5077985;27;45531;-45
2022/03/05 01:01:14;;;;;;;;;16.25;15.25;;;;;20.20;37.25;101334.88;5077629;27;45442;-47
2022/03/05 01:03:40;;;;;;;;;20.00;16.25;;;;;20.20;37.65;101331.41;5077837;27;45446;-53
2022/03/05 01:06:05;;;;;;;;;17.25;14.25;;;;;20.19;37.55;101333.16;5077784;27;45483;-52
2022/03/05 01:08:33;;;;;;;;;15.00;14.25;;;;;20.17;37.65;101323.63;5077816;27;45262;-53
2022/03/05 01:10:58;;;;;;;;;18.75;15.25;;;;;20.16;37.69;101330.69;5077182;27;46230;-55
2022/03/05 01:13:24;;;;;;;;;20.25;18.75;;;;;20.17;37.61;101334.16;5077342;27;45391;-49
2022/03/05 01:15:49;;;;;;;;;22.33;17.33;;;;;20.16;37.52;101327.19;5077216;27;45736;-58
2022/03/05 01:18:14;;;;;;;;;17.00;15.50;;;;;20.16;37.52;101338.59;5077505;27;45404;-52
2022/03/05 01:20:40;;;;;;;;;19.50;17.00;;;;;20.15;37.35;101338.66;5077581;27;45222;-55
2022/03/05 01:23:05;;;;;;;;;18.75;16.75;;;;;20.15;37.52;101330.75;5077273;27;45350;-53
2022/03/05 01:25:30;;;;;;;;;16.25;16.25;;;;;20.13;37.63;101332.59;5077153;27;45369;-51
2022/03/05 01:27:56;;;;;;;;;15.50;15.50;;;;;20.12;37.40;101328.28;5077392;27;45461;-50
2022/03/05 01:30:23;;;;;;;;;24.00;17.75;;;;;20.11;37.68;101330.03;5076968;27;45543;-56
2022/03/05 01:32:49;;;;;;;;;17.00;15.75;;;;;20.11;36.98;101330.03;5077223;27;45411;-55
2022/03/05 01:35:14;;;;;;;;;16.50;14.25;;;;;20.11;37.18;101329.19;5077310;27;45448;-55
2022/03/05 01:37:40;;;;;;;;;20.00;16.25;;;;;20.11;37.46;101329.19;5076325;27;45257;-59
2022/03/05 01:40:06;;;;;;;;;16.25;15.25;;;;;20.08;37.63;101325.78;5076967;27;46561;-52
2022/03/05 01:42:31;;;;;;;;;17.50;14.75;;;;;20.07;37.42;101324.06;5076997;27;45282;-52
2022/03/05 01:44:56;;;;;;;;;19.00;18.00;;;;;20.06;37.64;101322.34;5077146;27;45247;-49
2022/03/05 01:47:22;;;;;;;;;16.25;15.75;;;;;20.09;37.15;101331.88;5077197;27;45300;-55
2022/03/05 01:49:47;;;;;;;;;15.25;15.25;;;;;20.07;37.31;101331.97;5076706;28;46756;-57
2022/03/05 01:52:14;;;;;;;;;17.75;16.00;;;;;20.05;37.40;101331.19;5077223;27;45233;-53
2022/03/05 01:54:40;;;;;;;;;21.75;17.25;;;;;20.07;37.37;101336.34;5076963;27;45215;-52
2022/03/05 01:57:06;;;;;;;;;18.00;13.75;;;;;20.05;37.61;101333.81;5075884;27;45311;-56
2022/03/05 01:59:33;;;;;;;;;15.50;14.25;;;;;20.06;37.51;101332.88;5075432;28;47174;-54
2022/03/05 02:01:58;;;;;;;;;16.00;14.50;;;;;20.05;37.11;101335.59;5076691;27;45947;-54
2022/03/05 02:04:23;;;;;;;;;18.75;16.50;;;;;20.05;37.29;101338.22;5076802;27;45563;-57
2022/03/05 02:06:50;;;;;;;;;17.50;17.00;;;;;20.03;37.21;101340.91;5076997;27;45365;-48
2022/03/05 02:09:15;;;;;;;;;13.50;13.00;;;;;20.03;37.67;101332.19;5076919;27;47064;-57
2022/03/05 02:11:41;;;;;;;;;17.00;15.75;;;;;20.01;37.09;101329.59;5076720;27;45310;-55
2022/03/05 02:14:06;;;;;;;;;18.00;15.75;;;;;20.00;37.54;101330.53;5076669;27;45383;-54
2022/03/05 02:16:32;;;;;;;;;15.00;14.50;;;;;20.01;37.09;101334.84;5076793;27;45295;-55
2022/03/05 02:18:57;;;;;;;;;16.00;14.50;;;;;19.99;37.72;101333.22;5076574;27;46554;-54
2022/03/05 02:21:24;;;;;;;;;14.50;13.50;;;;;19.99;37.44;101326.19;5076612;27;45268;-53
2022/03/05 02:23:50;;;;;;;;;17.00;15.00;;;;;19.98;37.17;101327.13;5076639;27;45277;-52
2022/03/05 02:26:15;;;;;;;;;18.25;13.50;;;;;19.97;37.29;101328.03;5077055;27;45489;-51
2022/03/05 02:28:41;;;;;;;;;16.75;14.00;;;;;19.99;37.68;101333.22;5076024;27;45343;-48
2022/03/05 02:31:07;;;;;;;;;15.75;14.50;;;;;19.98;37.61;101329.75;5075983;27;45394;-54
2022/03/05 02:33:33;;;;;;;;;12.75;11.75;;;;;19.95;37.29;101319.34;5076540;27;45850;-55
2022/03/05 02:35:59;;;;;;;;;14.75;13.75;;;;;19.96;37.41;101323.69;5076571;27;45436;-56
2022/03/05 02:38:24;;;;;;;;;15.50;15.50;;;;;19.95;37.80;101318.53;5076094;27;46745;-55
2022/03/05 02:40:51;;;;;;;;;15.25;15.25;;;;;19.95;37.39;101324.63;5076211;27;45334;-58
2022/03/05 02:43:18;;;;;;;;;13.00;12.00;;;;;19.95;37.48;101322.00;5076450;27;45164;-57
2022/03/05 02:45:44;;;;;;;;;13.00;10.75;;;;;19.94;37.70;101315.03;5075476;27;45270;-54
2022/03/05 02:48:15;;;;;;;;;15.50;14.50;;;;;19.92;37.29;101315.09;5076882;28;46270;-53
2022/03/05 02:50:42;;;;;;;;;17.25;15.00;;;;;19.94;37.78;101317.66;5079831;28;45306;-58
2022/03/05 02:53:08;;;;;;;;;17.75;16.75;;;;;19.93;37.90;101308.03;5079687;27;45292;-54
2022/03/05 02:55:34;;;;;;;;;12.75;12.25;;;;;19.93;37.67;101313.31;5079734;27;45540;-54
2022/03/05 02:57:59;;;;;;;;;14.00;13.00;;;;;19.91;37.93;101308.13;5079327;27;46338;-55
2022/03/05 03:00:25;;;;;;;;;15.50;13.50;;;;;19.91;37.66;101313.38;5079130;28;45339;-52
2022/03/05 03:02:50;;;;;;;;;15.00;14.25;;;;;19.91;37.50;101304.63;5079604;27;45166;-56
2022/03/05 03:05:17;;;;;;;;;14.75;13.00;;;;;19.90;37.47;101313.44;5080050;28;45276;-52
2022/03/05 03:07:43;;;;;;;;;14.25;14.25;;;;;19.90;37.27;101306.41;5079302;27;46637;-55
2022/03/05 03:10:10;;;;;;;;;17.75;16.75;;;;;19.88;37.74;101303.00;5079264;28;45467;-53
2022/03/05 03:12:36;;;;;;;;;16.25;12.00;;;;;19.88;37.39;101307.41;5079517;27;45508;-57
2022/03/05 03:15:03;;;;;;;;;15.00;14.75;;;;;19.88;37.66;101303.00;5079307;27;45267;-56
2022/03/05 03:17:29;;;;;;;;;16.75;13.75;;;;;19.87;37.23;101295.19;5079144;27;45327;-55
2022/03/05 03:19:54;;;;;;;;;13.75;11.75;;;;;19.88;37.38;101296.91;5079087;28;45239;-53
2022/03/05 03:22:20;;;;;;;;;15.75;14.00;;;;;19.88;37.52;101302.16;5079349;27;45236;-51
2022/03/05 03:24:45;;;;;;;;;14.50;14.50;;;;;19.86;37.35;101304.00;5079789;27;45502;-58
2022/03/05 03:27:11;;;;;;;;;11.50;9.75;;;;;19.85;37.77;101297.00;5079011;27;45406;-57
2022/03/05 03:29:36;;;;;;;;;13.00;11.75;;;;;19.85;37.55;101295.19;5078817;27;45404;-56
2022/03/05 03:32:02;;;;;;;;;11.25;9.00;;;;;19.85;37.53;101297.00;5079122;27;45415;-59
2022/03/05 03:34:27;;;;;;;;;13.50;13.50;;;;;19.85;37.21;101297.00;5079126;27;45293;-55
2022/03/05 03:36:53;;;;;;;;;15.75;14.25;;;;;19.83;37.74;101301.47;5078754;27;45941;-58
2022/03/05 03:39:18;;;;;;;;;15.00;15.00;;;;;19.85;37.61;101302.25;5079071;27;45314;-59
2022/03/05 03:41:43;;;;;;;;;11.75;11.00;;;;;19.85;37.33;101304.88;5078935;27;45429;-52
2022/03/05 03:44:09;;;;;;;;;12.75;12.75;;;;;19.81;37.65;101298.03;5079070;27;45256;-54
2022/03/05 03:46:34;;;;;;;;;12.25;12.25;;;;;19.83;37.35;101304.97;5078499;27;45472;-51
2022/03/05 03:49:00;;;;;;;;;13.00;12.75;;;;;19.81;37.20;101305.94;5077316;27;45418;-56
2022/03/05 03:51:25;;;;;;;;;14.25;12.75;;;;;19.82;37.22;101307.66;5078654;27;45326;-53
2022/03/05 03:53:51;;;;;;;;;14.25;13.25;;;;;19.81;37.44;101300.66;5079177;27;45291;-54
2022/03/05 03:56:16;;;;;;;;;16.25;14.75;;;;;19.82;37.34;101308.50;5078906;27;45601;-51
2022/03/05 03:58:42;;;;;;;;;14.25;11.25;;;;;19.82;37.69;101318.16;5078423;27;45309;-54
2022/03/05 04:01:07;;;;;;;;;14.25;12.75;;;;;19.79;37.30;101316.53;5078676;27;45393;-58
2022/03/05 04:03:33;;;;;;;;;11.00;11.00;;;;;19.80;37.42;101309.47;5078611;27;45244;-51
2022/03/05 04:05:58;;;;;;;;;13.50;12.25;;;;;19.78;37.85;101313.06;5078229;27;46302;-53
2022/03/05 04:08:42;;;;;;;;;14.25;12.00;;;;;19.81;37.50;101305.94;5078298;27;45445;-52
2022/03/05 04:11:11;;;;;;;;;12.50;12.50;;;;;19.84;37.89;101311.06;5078483;27;45810;-54
2022/03/05 04:13:37;;;;;;;;;10.50;10.50;;;;;19.85;38.03;101308.34;5078494;27;45350;-55
2022/03/05 04:16:03;;;;;;;;;13.75;12.75;;;;;19.88;37.76;101304.78;5077972;27;46097;-59
2022/03/05 04:18:28;;;;;;;;;11.50;10.25;;;;;19.94;37.69;101307.13;5078114;27;45406;-54
2022/03/05 04:20:54;;;;;;;;;16.00;13.75;;;;;19.99;37.71;101313.06;5078357;27;45397;-53
2022/03/05 04:23:19;;;;;;;;;12.50;11.00;;;;;20.04;37.40;101307.56;5078692;27;45301;-54
2022/03/05 04:25:44;;;;;;;;;11.25;10.00;;;;;20.09;37.71;101308.19;5077890;27;47193;-55
2022/03/05 04:28:10;;;;;;;;;11.75;11.75;;;;;20.14;37.49;101314.13;5077984;27;45344;-58
2022/03/05 04:30:35;;;;;;;;;10.25;10.25;;;;;20.20;37.73;101310.34;5078217;27;45353;-57
2022/03/05 04:33:01;;;;;;;;;12.75;11.25;;;;;20.25;37.21;101310.97;5078268;27;45326;-59
2022/03/05 04:35:26;;;;;;;;;11.75;10.75;;;;;20.26;37.56;101307.41;5077907;27;46428;-56
2022/03/05 04:37:51;;;;;;;;;11.00;9.00;;;;;20.33;37.12;101311.50;5078293;27;45219;-56
2022/03/05 04:40:17;;;;;;;;;13.25;12.25;;;;;20.37;37.60;101309.56;5078059;27;45231;-58
2022/03/05 04:42:42;;;;;;;;;14.25;12.25;;;;;20.39;37.57;101316.44;5078051;27;45243;-54
2022/03/05 04:45:09;;;;;;;;;11.50;11.50;;;;;20.44;37.46;101307.50;5077617;27;46221;-59
2022/03/05 04:47:35;;;;;;;;;14.00;12.50;;;;;20.46;37.39;101303.84;5077806;27;45280;-60
2022/03/05 04:50:01;;;;;;;;;11.00;10.75;;;;;20.50;37.07;101312.47;5076388;28;45372;-56
2022/03/05 04:52:26;;;;;;;;;11.00;9.00;;;;;20.53;36.87;101320.22;5077860;27;45405;-59
2022/03/05 04:54:51;;;;;;;;;11.75;9.50;;;;;20.55;37.24;101307.84;5077784;27;47078;-58
2022/03/05 04:57:17;;;;;;;;;13.25;12.00;;;;;20.59;36.82;101319.06;5077600;27;45315;-59
2022/03/05 04:59:42;;;;;;;;;11.00;10.25;;;;;20.60;37.14;101321.63;5076422;28;45434;-57
2022/03/05 05:02:08;;;;;;;;;9.25;9.25;;;;;20.60;37.21;101319.00;5077908;27;45438;-60
2022/03/05 05:04:34;;;;;;;;;11.75;11.50;;;;;20.62;36.84;101319.78;5077400;28;45371;-55
2022/03/05 05:06:59;;;;;;;;;11.25;10.25;;;;;20.64;36.86;101315.28;5077555;27;45841;-57
2022/03/05 05:09:25;;;;;;;;;11.00;9.25;;;;;20.66;36.57;101316.06;5077759;27;45273;-55
2022/03/05 05:11:50;;;;;;;;;11.00;10.50;;;;;20.65;37.13;101314.38;5077375;27;45457;-53
2022/03/05 05:14:15;;;;;;;;;10.25;10.25;;;;;20.66;36.76;101316.06;5077053;27;46127;-50
2022/03/05 05:16:41;;;;;;;;;11.00;10.00;;;;;20.68;36.56;101322.09;5077280;27;45368;-52
2022/03/05 05:19:24;;;;;;;;;9.25;9.00;;;;;20.66;36.92;101323.97;5077464;27;45239;-49
2022/03/05 05:21:50;;;;;;;;;29.75;27.50;;;;;20.61;35.16;101318.06;5077376;27;45386;-49
2022/03/05 05:24:16;;;;;;;;;36.25;30.50;;;;;20.37;35.79;101331.47;5077026;27;46347;-54
2022/03/05 05:26:41;;;;;;;;;32.00;28.75;;;;;20.14;35.41;101334.31;5077035;27;45408;-53
2022/03/05 05:29:07;;;;;;;;;35.75;31.75;;;;;19.86;36.03;101325.88;5077104;27;45264;-51
2022/03/05 05:31:32;;;;;;;;;35.25;30.50;;;;;19.64;36.00;101336.47;5075921;27;45229;-49
2022/03/05 05:33:58;;;;;;;;;36.75;33.00;;;;;19.46;35.71;101338.97;5076858;27;46354;-52
2022/03/05 05:36:23;;;;;;;;;40.75;32.00;;;;;19.28;36.34;101331.88;5077182;27;45238;-53
2022/03/05 05:38:48;;;;;;;;;32.75;29.25;;;;;19.14;36.25;101337.72;5076950;27;45345;-50
2022/03/05 05:41:15;;;;;;;;;34.00;30.00;;;;;19.01;36.59;101342.63;5077068;27;45440;-52
2022/03/05 05:43:40;;;;;;;;;36.25;31.75;;;;;18.89;36.58;101340.47;5076847;27;46325;-52
2022/03/05 05:46:06;;;;;;;;;37.25;33.50;;;;;18.74;36.99;101334.88;5076983;27;45225;-50
2022/03/05 05:48:31;;;;;;;;;40.00;33.50;;;;;18.65;37.15;101345.75;5076867;27;45457;-47
2022/03/05 05:50:57;;;;;;;;;33.00;29.75;;;;;18.53;37.07;101347.06;5077032;27;45432;-50
2022/03/05 05:53:23;;;;;;;;;28.75;27.25;;;;;18.41;37.26;101348.41;5076957;27;46253;-49
2022/03/05 05:55:48;;;;;;;;;42.25;33.75;;;;;18.35;37.52;101348.66;5076627;27;45370;-46
2022/03/05 05:58:14;;;;;;;;;35.75;31.75;;;;;18.26;37.68;101344.63;5076678;27;45572;-50
2022/03/05 06:00:39;;;;;;;;;39.75;32.50;;;;;18.16;37.51;101338.00;5076999;27;45556;-52
2022/03/05 06:03:04;;;;;;;;;35.25;31.75;;;;;18.10;37.91;101346.94;5075288;28;46061;-49
2022/03/05 06:05:30;;;;;;;;;39.50;30.50;;;;;18.02;37.88;101347.22;5076503;27;45317;-51
2022/03/05 06:07:56;;;;;;;;;33.00;28.00;;;;;18.00;37.87;101349.03;5076899;27;45953;-47
2022/03/05 06:10:21;;;;;;;;;26.25;23.50;;;;;18.07;38.32;101349.69;5076619;27;45608;-47
2022/03/05 06:12:48;;;;;;;;;26.75;25.00;;;;;18.21;38.18;101343.91;5076388;27;46106;-50
2022/03/05 06:15:14;;;;;;;;;27.00;24.25;;;;;18.37;37.90;101352.06;5076253;27;46086;-46
2022/03/05 06:17:43;;;;;;;;;26.00;25.00;;;;;18.51;37.54;101357.66;5058422;28;45718;-49
2022/03/05 06:20:09;;;;;;;;;28.00;26.00;;;;;18.64;37.87;101355.38;5076748;27;45449;-56
2022/03/05 06:22:34;;;;;;;;;23.25;21.75;;;;;18.73;37.44;101354.19;5077301;27;45989;-54
2022/03/05 06:25:00;;;;;;;;;25.75;23.50;;;;;18.84;37.38;101353.78;5079833;27;45357;-49
2022/03/05 06:27:25;;;;;;;;;27.75;25.25;;;;;18.93;37.65;101358.69;5080315;27;45371;-48
2022/03/05 06:29:51;;;;;;;;;24.75;24.00;;;;;19.00;37.08;101357.50;5080043;27;45482;-50
2022/03/05 06:32:16;;;;;;;;;32.00;27.00;;;;;19.08;37.46;101351.94;5079983;27;45394;-47
2022/03/05 06:34:42;;;;;;;;;26.75;23.25;;;;;19.15;37.26;101360.44;5078616;28;45223;-53
2022/03/05 06:37:07;;;;;;;;;22.50;20.75;;;;;19.19;37.00;101353.28;5079968;27;45412;-54
2022/03/05 06:39:32;;;;;;;;;24.50;23.00;;;;;19.23;36.84;101357.50;5080028;28;45258;-54
2022/03/05 06:41:58;;;;;;;;;25.25;20.75;;;;;19.30;37.00;101364.19;5080024;27;45573;-53
2022/03/05 06:44:23;;;;;;;;;25.75;21.50;;;;;19.34;36.74;101357.91;5079938;27;45369;-53
2022/03/05 06:46:49;;;;;;;;;27.25;23.25;;;;;19.35;36.42;101362.22;5079875;27;45402;-54
2022/03/05 06:49:14;;;;;;;;;21.00;19.25;;;;;19.41;36.96;101361.09;5079978;27;45592;-52
2022/03/05 06:51:39;;;;;;;;;22.25;19.75;;;;;19.44;36.79;101367.13;5079465;27;45353;-48
2022/03/05 06:54:05;;;;;;;;;23.75;23.50;;;;;19.46;36.80;101365.25;5079502;27;45353;-51
2022/03/05 06:56:30;;;;;;;;;24.25;24.25;;;;;19.49;36.60;101366.03;5079767;27;45236;-51
2022/03/05 06:58:56;;;;;;;;;24.25;20.25;;;;;19.50;36.87;101368.63;5080024;27;45227;-53
2022/03/05 07:01:21;;;;;;;;;25.25;20.00;;;;;19.54;36.68;101379.88;5079323;27;46261;-54
2022/03/05 07:03:46;;;;;;;;;27.00;23.00;;;;;19.56;37.05;101380.66;5079213;27;45322;-53
2022/03/05 07:06:12;;;;;;;;;27.75;26.75;;;;;19.56;36.75;101380.66;5079430;27;45319;-49
2022/03/05 07:08:37;;;;;;;;;32.75;31.25;;;;;19.60;36.39;101379.59;5079579;27;45546;-51
2022/03/05 07:11:04;;;;;;;;;42.75;35.50;;;;;19.60;36.66;101385.72;5079161;27;45355;-58
2022/03/05 07:13:29;;;;;;;;;42.50;36.25;;;;;19.62;36.63;101385.66;5079665;27;45815;-51
2022/03/05 07:15:55;;;;;;;;;39.00;33.75;;;;;19.63;36.98;101395.25;5078619;27;45350;-47
2022/03/05 07:18:21;;;;;;;;;37.75;35.00;;;;;19.63;36.72;101395.25;5078585;27;45448;-52
2022/03/05 07:20:46;;;;;;;;;44.50;36.75;;;;;19.63;36.80;101397.88;5077953;27;46133;-53
2022/03/05 07:23:12;;;;;;;;;41.50;36.25;;;;;19.63;36.84;101393.47;5078112;28;45366;-50
2022/03/05 07:25:39;;;;;;;;;45.00;38.25;;;;;19.65;36.49;101395.16;5078256;27;45330;-47
2022/03/05 07:28:09;;;;;;;;;46.50;37.75;;;;;19.65;37.00;101395.16;5077004;28;45197;-51
2022/03/05 07:30:36;;;;;;;;;42.75;35.00;;;;;19.66;37.04;101402.13;5077684;27;46024;-50
2022/03/05 07:33:02;;;;;;;;;39.50;35.00;;;;;19.64;36.77;101402.22;5077642;27;45840;-46
2022/03/05 07:35:27;;;;;;;;;39.75;32.50;;;;;19.65;36.53;101395.16;5077983;27;45307;-47
2022/03/05 07:37:52;;;;;;;;;36.00;33.75;;;;;19.64;36.94;101402.22;5076623;28;45346;-49
2022/03/05 07:40:18;;;;;;;;;33.75;31.00;;;;;19.65;36.99;101403.94;5077434;27;45607;-48
2022/03/05 07:42:43;;;;;;;;;34.50;29.75;;;;;19.66;37.35;101405.66;5077486;27;45393;-46
2022/03/05 07:45:09;;;;;;;;;31.00;30.50;;;;;19.68;36.91;101411.66;5077700;27;45318;-46
2022/03/05 07:47:34;;;;;;;;;30.75;30.50;;;;;19.69;37.48;101410.75;5077691;27;45185;-45
2022/03/05 07:50:01;;;;;;;;;28.25;28.25;;;;;19.69;37.10;101413.38;5077540;27;45976;-44
2022/03/05 07:52:26;;;;;;;;;31.50;27.50;;;;;19.70;37.38;101415.09;5077603;27;45779;-49
2022/03/05 07:54:51;;;;;;;;;27.75;26.25;;;;;19.72;37.13;101426.41;5077465;27;45363;-45
2022/03/05 07:57:17;;;;;;;;;27.75;26.75;;;;;19.72;37.64;101422.94;5077488;27;45375;-49
2022/03/05 07:59:42;;;;;;;;;28.25;25.25;;;;;19.73;37.53;101422.84;5075756;28;47216;-53
2022/03/05 08:02:08;;;;;;;;;21.75;21.75;;;;;19.74;37.32;101421.94;5074359;27;45310;-58
2022/03/05 08:04:33;;;;;;;;;25.00;24.50;;;;;19.74;36.99;101426.34;5074821;27;45405;-45
2022/03/05 08:06:58;;;;;;;;;23.50;23.00;;;;;19.71;37.48;101424.69;5077074;28;45365;-54
2022/03/05 08:09:24;;;;;;;;;25.75;23.50;;;;;19.74;37.05;101429.84;5076587;28;46063;-53
2022/03/05 08:11:49;;;;;;;;;28.00;25.50;;;;;19.75;37.13;101423.66;5076501;28;45472;-58
2022/03/05 08:14:14;;;;;;;;;26.25;24.25;;;;;19.75;37.63;101423.66;5036572;27;1132742;-49
2022/03/05 08:16:40;;;;;;;;;25.50;24.00;;;;;19.66;37.65;101404.78;5077873;27;45287;-54
2022/03/05 08:19:05;;;;;;;;;25.50;18.25;;;;;19.66;37.37;101412.66;5077107;27;46760;-53
2022/03/05 08:21:32;;;;;;;;;19.50;18.50;;;;;19.63;37.39;101414.50;5078062;28;45250;-56
2022/03/05 08:23:58;;;;;;;;;23.00;22.75;;;;;19.75;37.22;101444.69;5078186;28;45283;-54
2022/03/05 08:26:24;;;;;;;;;19.50;19.50;;;;;19.70;37.25;101425.63;5077846;28;45361;-56
2022/03/05 08:28:49;;;;;;;;;27.00;24.00;;;;;19.75;37.25;101434.19;5093006;27;47406;-55
2022/03/05 08:31:14;;;;;;;;;22.00;21.25;;;;;19.76;37.41;101432.38;5077337;28;45339;-57
2022/03/05 08:33:40;;;;;;;;;23.25;20.25;;;;;19.76;37.21;101435.88;5077460;28;45198;-53
2022/03/05 08:36:06;;;;;;;;;21.50;19.50;;;;;19.76;37.50;101428.00;5093283;27;45240;-47
2022/03/05 08:38:34;;;;;;;;;21.00;18.75;;;;;19.78;37.77;101433.19;5077439;28;46990;-54
2022/03/05 08:41:00;;;;;;;;;12.50;12.50;;;;;19.78;37.84;101430.56;5077123;28;45361;-54
2022/03/05 08:43:25;;;;;;;;;18.50;17.00;;;;;19.68;37.66;101411.66;5077242;28;45501;-51
2022/03/05 08:45:51;;;;;;;;;18.25;18.25;;;;;19.79;37.72;101427.00;5076415;28;45634;-54
2022/03/05 08:48:17;;;;;;;;;19.50;17.25;;;;;19.79;37.88;101427.00;5076737;28;46084;-49
2022/03/05 08:50:42;;;;;;;;;21.75;18.00;;;;;19.76;37.46;101420.09;5076998;28;45775;-52
2022/03/05 08:53:08;;;;;;;;;19.75;17.75;;;;;19.81;37.38;101432.19;5077178;28;45441;-48
2022/03/05 08:55:33;;;;;;;;;18.25;17.25;;;;;19.78;37.57;101426.16;5070273;28;45429;-49
2022/03/05 08:57:59;;;;;;;;;16.50;14.75;;;;;19.80;37.43;101435.72;5063583;27;46714;-48
2022/03/05 09:00:25;;;;;;;;;18.25;18.25;;;;;19.81;37.66;101437.44;5066651;28;45413;-56
2022/03/05 09:02:50;;;;;;;;;21.00;17.50;;;;;19.78;37.12;101436.69;5070236;28;45299;-46
2022/03/05 09:05:16;;;;;;;;;14.50;14.50;;;;;19.82;36.97;101431.28;5077140;27;45311;-51
2022/03/05 09:07:43;;;;;;;;;20.00;17.00;;;;;19.82;36.92;101432.16;5068937;28;46607;-47
2022/03/05 09:10:09;;;;;;;;;20.75;17.50;;;;;19.83;37.50;101430.34;5063443;28;45512;-55
2022/03/05 09:12:34;;;;;;;;;16.75;16.25;;;;;19.83;37.08;101430.34;5069397;28;45307;-50
2022/03/05 09:15:00;;;;;;;;;19.50;16.50;;;;;19.82;37.23;101433.91;5076998;27;45433;-49
2022/03/05 09:17:25;;;;;;;;;15.25;15.25;;;;;19.83;37.23;101430.34;5076385;27;46572;-48
2022/03/05 09:19:53;;;;;;;;;15.25;15.25;;;;;19.84;37.02;101426.81;5076590;28;45556;-51
2022/03/05 09:22:18;;;;;;;;;16.25;13.50;;;;;19.83;36.84;101430.34;5076703;27;45456;-47
2022/03/05 09:24:43;;;;;;;;;17.50;15.25;;;;;19.83;37.43;101430.34;5075843;27;45312;-49
2022/03/05 09:27:09;;;;;;;;;16.25;15.25;;;;;19.84;37.20;101432.06;5076602;27;46240;-47
2022/03/05 09:29:35;;;;;;;;;16.75;14.50;;;;;19.84;36.97;101439.97;5076433;27;45467;-54
2022/03/05 09:32:01;;;;;;;;;17.00;14.75;;;;;19.80;36.80;101436.59;5075093;28;45358;-50
2022/03/05 09:34:27;;;;;;;;;13.25;12.25;;;;;19.82;37.14;101434.78;5076627;27;45670;-55
2022/03/05 09:36:52;;;;;;;;;14.50;13.75;;;;;19.84;37.16;101437.31;5074970;28;47067;-48
2022/03/05 09:39:19;;;;;;;;;13.50;12.75;;;;;19.85;36.74;101441.66;5076473;28;45400;-56
2022/03/05 09:41:44;;;;;;;;;14.00;12.50;;;;;19.83;36.61;101440.88;5076338;28;45379;-53
2022/03/05 09:44:09;;;;;;;;;13.50;13.25;;;;;19.84;36.87;101438.19;5075010;28;45556;-57
2022/03/05 09:46:35;;;;;;;;;12.00;12.00;;;;;19.85;37.00;101439.03;5075806;27;45460;-54
2022/03/05 09:49:03;;;;;;;;;14.25;14.25;;;;;19.85;36.88;101432.00;5076631;27;45346;-57
2022/03/05 09:51:29;;;;;;;;;12.75;12.75;;;;;19.87;36.90;101434.59;5076537;27;45340;-61
2022/03/05 09:53:55;;;;;;;;;12.25;11.25;;;;;19.87;36.85;101438.06;5075247;28;45320;-57
2022/03/05 09:56:21;;;;;;;;;14.25;14.00;;;;;19.86;36.55;101433.72;5076029;27;45351;-56
2022/03/05 09:58:52;;;;;;;;;14.75;11.00;;;;;19.88;36.78;101434.53;5076220;27;46090;-57
2022/03/05 10:01:18;;;;;;;;;14.00;13.00;;;;;19.89;36.86;101436.25;5075979;27;45184;-48
2022/03/05 10:03:48;;;;;;;;;10.25;9.00;;;;;19.90;36.79;101426.56;5075138;28;45332;-53
2022/03/05 10:06:18;;;;;;;;;12.75;12.75;;;;;19.92;36.74;101443.13;5075957;27;45379;-46
2022/03/05 10:08:45;;;;;;;;;14.75;14.00;;;;;19.86;36.47;101423.22;5076263;27;45955;-58
2022/03/05 10:11:14;;;;;;;;;13.75;13.00;;;;;19.92;36.86;101429.97;5076274;27;45453;-47
2022/03/05 10:13:42;;;;;;;;;14.00;12.75;;;;;19.91;36.75;101423.00;5074765;28;45571;-47
2022/03/05 10:16:33;;;;;;;;;17.00;13.75;;;;;19.93;36.85;101429.94;5075419;27;46288;-49
2022/03/05 10:19:16;;;;;;;;;11.00;9.75;;;;;19.91;36.59;101433.53;5076194;27;45889;-47
2022/03/05 10:21:56;;;;;;;;;15.00;15.00;;;;;19.93;36.92;101432.56;5075865;27;45185;-50
2022/03/05 10:24:33;;;;;;;;;13.25;12.50;;;;;19.95;36.89;101434.28;5076006;27;45503;-57
2022/03/05 10:26:59;;;;;;;;;13.75;12.50;;;;;19.95;36.45;101435.13;5076229;27;45715;-44
2022/03/05 10:29:27;;;;;;;;;14.25;11.00;;;;;19.96;36.24;101430.69;5074622;27;45338;-45
2022/03/05 10:32:03;;;;;;;;;13.00;12.50;;;;;19.94;36.89;101428.16;5075771;27;45402;-45
2022/03/05 10:34:49;;;;;;;;;9.50;9.00;;;;;19.94;36.85;101433.41;5075601;27;45293;-46
2022/03/05 10:37:15;;;;;;;;;13.75;12.25;;;;;19.95;36.57;101432.50;5075531;28;46282;-44
2022/03/05 10:39:41;;;;;;;;;11.25;10.25;;;;;19.96;36.57;101435.97;5075707;27;46062;-52
2022/03/05 10:42:20;;;;;;;;;10.25;10.00;;;;;19.92;36.67;101433.50;5075909;27;45326;-45
2022/03/05 10:45:06;;;;;;;;;12.50;11.00;;;;;19.94;36.48;101438.66;5075907;27;45355;-48
2022/03/05 10:47:39;;;;;;;;;11.00;9.00;;;;;19.93;36.26;101432.56;5076100;28;46022;-52
2022/03/05 10:50:30;;;;;;;;;13.25;11.25;;;;;19.93;36.69;101429.06;5073587;27;45469;-48
2022/03/05 10:53:01;;;;;;;;;14.00;11.50;;;;;19.89;36.25;101424.88;5069940;28;45509;-52
2022/03/05 10:55:34;;;;;;;;;13.50;9.50;;;;;19.93;36.24;101431.69;5067015;28;45461;-45
2022/03/05 10:58:09;;;;;;;;;14.25;10.75;;;;;19.92;36.27;101422.97;5073148;28;47122;-47
2022/03/05 11:00:34;;;;;;;;;10.00;9.25;;;;;19.92;36.43;101422.97;5066696;27;45180;-45
2022/03/05 11:03:03;;;;;;;;;13.00;13.00;;;;;19.94;36.28;101433.41;5075673;27;45756;-48
2022/03/05 11:05:29;;;;;;;;;11.00;9.00;;;;;19.91;36.27;101418.63;5075073;28;45477;-49